createdAt,value
2023-05-24T00:00:30.080Z,6.96
2023-05-24T00:02:57.705Z,6.92
2023-05-24T00:05:25.998Z,6.88
2023-05-24T00:07:52.641Z,6.86
2023-05-24T00:10:19.441Z,6.82
2023-05-24T00:12:46.191Z,6.80
2023-05-24T00:15:13.006Z,6.79
2023-05-24T00:17:41.666Z,6.82
2023-05-24T00:20:11.840Z,6.81
2023-05-24T00:22:39.409Z,6.80
2023-05-24T00:25:06.925Z,6.77
2023-05-24T00:27:33.768Z,6.75
2023-05-24T00:30:00.510Z,6.71
2023-05-24T00:32:27.181Z,6.64
2023-05-24T00:34:53.962Z,6.64
2023-05-24T00:37:20.624Z,6.65
2023-05-24T00:39:47.569Z,6.65
2023-05-24T00:42:14.192Z,6.63
2023-05-24T00:44:40.947Z,6.62
2023-05-24T00:47:07.989Z,6.64
2023-05-24T00:49:35.455Z,6.67
2023-05-24T00:52:02.395Z,6.71
2023-05-24T00:54:29.547Z,6.74
2023-05-24T00:56:57.260Z,6.75
2023-05-24T00:59:24.554Z,6.73
2023-05-24T01:01:51.271Z,6.73
2023-05-24T01:04:20.530Z,6.69
2023-05-24T01:07:04.248Z,6.67
2023-05-24T01:09:43.048Z,6.63
2023-05-24T01:12:31.065Z,6.57
2023-05-24T01:15:19.440Z,6.53
2023-05-24T01:18:16.344Z,6.51
2023-05-24T01:20:44.631Z,6.47
2023-05-24T01:23:26.383Z,6.43
2023-05-24T01:26:32.425Z,6.43
2023-05-24T01:29:01.425Z,6.43
2023-05-24T01:31:28.274Z,6.42
2023-05-24T01:33:54.995Z,6.43
2023-05-24T01:36:21.773Z,6.43
2023-05-24T01:38:50.460Z,6.49
2023-05-24T01:41:24.003Z,6.54
2023-05-24T01:44:03.774Z,6.55
2023-05-24T01:46:38.774Z,6.53
2023-05-24T01:49:31.878Z,6.51
2023-05-24T01:52:12.361Z,6.47
2023-05-24T01:54:43.752Z,6.48
2023-05-24T01:57:11.923Z,6.49
2023-05-24T01:59:42.358Z,6.46
2023-05-24T02:02:10.600Z,6.42
2023-05-24T02:04:37.932Z,6.38
2023-05-24T02:07:05.016Z,6.33
2023-05-24T02:09:31.701Z,6.29
2023-05-24T02:11:58.562Z,6.28
2023-05-24T02:14:26.425Z,6.22
2023-05-24T02:16:53.400Z,6.22
2023-05-24T02:19:20.030Z,6.17
2023-05-24T02:21:46.737Z,6.12
2023-05-24T02:24:13.447Z,6.04
2023-05-24T02:26:40.386Z,6.03
2023-05-24T02:29:07.015Z,5.98
2023-05-24T02:31:33.825Z,5.94
2023-05-24T02:34:00.782Z,5.91
2023-05-24T02:36:27.656Z,5.89
2023-05-24T02:38:54.527Z,5.89
2023-05-24T02:41:22.214Z,5.85
2023-05-24T02:43:49.077Z,5.81
2023-05-24T02:46:15.972Z,5.83
2023-05-24T02:48:42.602Z,5.81
2023-05-24T02:51:09.264Z,5.77
2023-05-24T02:53:36.044Z,5.76
2023-05-24T02:56:02.661Z,5.75
2023-05-24T02:58:30.459Z,5.69
2023-05-24T03:00:57.345Z,5.68
2023-05-24T03:03:24.133Z,5.68
2023-05-24T03:05:51.003Z,5.67
2023-05-24T03:08:17.642Z,5.65
2023-05-24T03:10:44.614Z,5.61
2023-05-24T03:13:11.365Z,5.58
2023-05-24T03:15:38.068Z,5.56
2023-05-24T03:18:04.844Z,5.55
2023-05-24T03:20:32.022Z,5.55
2023-05-24T03:22:58.709Z,5.53
2023-05-24T03:25:27.439Z,5.52
2023-05-24T03:27:54.161Z,5.48
2023-05-24T03:30:21.109Z,5.47
2023-05-24T03:32:47.869Z,5.51
2023-05-24T03:35:15.056Z,5.51
2023-05-24T03:37:41.869Z,5.50
2023-05-24T03:40:08.981Z,5.54
2023-05-24T03:42:35.675Z,5.58
2023-05-24T03:45:02.493Z,5.64
2023-05-24T03:47:29.236Z,5.71
2023-05-24T03:49:55.961Z,5.75
2023-05-24T03:52:22.773Z,5.76
2023-05-24T03:54:49.463Z,5.81
2023-05-24T03:57:16.197Z,5.84
2023-05-24T03:59:42.838Z,5.87
2023-05-24T04:02:09.847Z,5.94
2023-05-24T04:04:37.534Z,5.98
2023-05-24T04:07:04.446Z,6.03
2023-05-24T04:09:31.126Z,6.04
2023-05-24T04:11:57.759Z,6.03
2023-05-24T04:14:24.393Z,6.08
2023-05-24T04:16:51.994Z,6.12
2023-05-24T04:19:18.667Z,6.09
2023-05-24T04:21:45.811Z,6.11
2023-05-24T04:24:12.445Z,6.14
2023-05-24T04:26:39.370Z,6.12
2023-05-24T04:29:07.858Z,6.18
2023-05-24T04:31:35.179Z,6.24
2023-05-24T04:34:02.189Z,6.25
2023-05-24T04:36:29.140Z,6.30
2023-05-24T04:39:02.805Z,6.39
2023-05-24T04:41:32.126Z,6.44
2023-05-24T04:44:01.620Z,6.50
2023-05-24T04:46:28.510Z,6.58
2023-05-24T04:48:55.521Z,6.61
2023-05-24T04:51:23.034Z,6.76
2023-05-24T04:53:49.749Z,6.87
2023-05-24T04:56:17.095Z,7.02
2023-05-24T04:58:43.834Z,7.05
2023-05-24T05:01:10.817Z,7.08
2023-05-24T05:03:37.683Z,7.19
2023-05-24T05:06:05.025Z,7.26
2023-05-24T05:08:31.683Z,7.37
2023-05-24T05:10:58.828Z,7.38
2023-05-24T05:13:25.530Z,7.26
2023-05-24T05:15:52.678Z,7.34
2023-05-24T05:18:19.463Z,7.41
2023-05-24T05:20:46.735Z,7.46
2023-05-24T05:23:13.721Z,7.49
2023-05-24T05:25:40.423Z,7.56
2023-05-24T05:28:07.085Z,7.56
2023-05-24T05:30:33.712Z,7.64
2023-05-24T05:33:00.623Z,7.68
2023-05-24T05:35:27.533Z,7.69
2023-05-24T05:37:54.238Z,7.80
2023-05-24T05:40:20.931Z,7.81
2023-05-24T05:42:47.700Z,7.90
2023-05-24T05:45:14.571Z,7.84
